sensor_id;sensor_type;location;lat;lon;timestamp;P1;durP1;ratioP1;P2;durP2;ratioP2
75021;SDS011;63583;49.976;20.182;2024-02-16T00:01:38;22.13;;;10.73;;
75021;SDS011;63583;49.976;20.182;2024-02-16T00:04:04;19.20;;;10.68;;
75021;SDS011;63583;49.976;20.182;2024-02-16T00:06:30;17.58;;;9.95;;
75021;SDS011;63583;49.976;20.182;2024-02-16T00:08:56;15.25;;;9.50;;
75021;SDS011;63583;49.976;20.182;2024-02-16T00:11:22;16.58;;;9.68;;
75021;SDS011;63583;49.976;20.182;2024-02-16T00:13:48;19.67;;;9.80;;
75021;SDS011;63583;49.976;20.182;2024-02-16T00:16:14;17.58;;;9.98;;
75021;SDS011;63583;49.976;20.182;2024-02-16T00:18:40;17.80;;;9.45;;
75021;SDS011;63583;49.976;20.182;2024-02-16T00:21:06;18.15;;;9.23;;
75021;SDS011;63583;49.976;20.182;2024-02-16T00:23:32;18.42;;;8.70;;
75021;SDS011;63583;49.976;20.182;2024-02-16T00:25:59;16.75;;;8.85;;
75021;SDS011;63583;49.976;20.182;2024-02-16T00:28:26;16.17;;;9.23;;
75021;SDS011;63583;49.976;20.182;2024-02-16T00:30:53;18.45;;;9.38;;
75021;SDS011;63583;49.976;20.182;2024-02-16T00:33:19;19.05;;;9.80;;
75021;SDS011;63583;49.976;20.182;2024-02-16T00:35:44;21.20;;;10.80;;
75021;SDS011;63583;49.976;20.182;2024-02-16T00:38:13;16.65;;;9.63;;
75021;SDS011;63583;49.976;20.182;2024-02-16T00:40:38;16.20;;;9.60;;
75021;SDS011;63583;49.976;20.182;2024-02-16T00:43:09;15.80;;;8.93;;
75021;SDS011;63583;49.976;20.182;2024-02-16T00:45:35;17.67;;;8.88;;
75021;SDS011;63583;49.976;20.182;2024-02-16T00:48:01;15.00;;;8.63;;
75021;SDS011;63583;49.976;20.182;2024-02-16T00:50:27;14.07;;;7.20;;
75021;SDS011;63583;49.976;20.182;2024-02-16T00:52:53;12.55;;;7.57;;
75021;SDS011;63583;49.976;20.182;2024-02-16T00:55:19;14.50;;;7.57;;
75021;SDS011;63583;49.976;20.182;2024-02-16T00:57:45;15.93;;;7.95;;
75021;SDS011;63583;49.976;20.182;2024-02-16T01:00:11;14.55;;;8.07;;
75021;SDS011;63583;49.976;20.182;2024-02-16T01:02:38;14.77;;;7.65;;
75021;SDS011;63583;49.976;20.182;2024-02-16T01:05:04;14.68;;;8.85;;
75021;SDS011;63583;49.976;20.182;2024-02-16T01:07:30;15.40;;;8.90;;
75021;SDS011;63583;49.976;20.182;2024-02-16T01:09:57;15.65;;;9.77;;
75021;SDS011;63583;49.976;20.182;2024-02-16T01:12:23;19.60;;;10.00;;
75021;SDS011;63583;49.976;20.182;2024-02-16T01:14:49;15.43;;;9.10;;
75021;SDS011;63583;49.976;20.182;2024-02-16T01:17:15;15.70;;;8.45;;
75021;SDS011;63583;49.976;20.182;2024-02-16T01:19:40;15.60;;;8.50;;
75021;SDS011;63583;49.976;20.182;2024-02-16T01:22:06;13.25;;;7.82;;
75021;SDS011;63583;49.976;20.182;2024-02-16T01:24:32;14.38;;;7.85;;
75021;SDS011;63583;49.976;20.182;2024-02-16T01:26:58;15.13;;;7.60;;
75021;SDS011;63583;49.976;20.182;2024-02-16T01:29:23;13.10;;;7.60;;
75021;SDS011;63583;49.976;20.182;2024-02-16T01:31:49;13.60;;;7.20;;
75021;SDS011;63583;49.976;20.182;2024-02-16T01:34:15;16.70;;;8.10;;
75021;SDS011;63583;49.976;20.182;2024-02-16T01:36:41;14.15;;;8.48;;
75021;SDS011;63583;49.976;20.182;2024-02-16T01:39:07;16.77;;;8.25;;
75021;SDS011;63583;49.976;20.182;2024-02-16T01:41:33;12.77;;;7.22;;
75021;SDS011;63583;49.976;20.182;2024-02-16T01:43:59;13.40;;;7.25;;
75021;SDS011;63583;49.976;20.182;2024-02-16T01:46:25;13.88;;;8.20;;
75021;SDS011;63583;49.976;20.182;2024-02-16T01:48:51;15.77;;;8.18;;
75021;SDS011;63583;49.976;20.182;2024-02-16T01:51:18;15.05;;;8.60;;
75021;SDS011;63583;49.976;20.182;2024-02-16T01:53:44;16.63;;;8.32;;
75021;SDS011;63583;49.976;20.182;2024-02-16T01:56:11;16.70;;;8.65;;
75021;SDS011;63583;49.976;20.182;2024-02-16T01:58:37;16.85;;;8.32;;
75021;SDS011;63583;49.976;20.182;2024-02-16T02:01:03;17.40;;;8.73;;
75021;SDS011;63583;49.976;20.182;2024-02-16T02:03:29;17.15;;;8.82;;
75021;SDS011;63583;49.976;20.182;2024-02-16T02:05:55;17.10;;;8.85;;
75021;SDS011;63583;49.976;20.182;2024-02-16T02:08:21;16.00;;;8.13;;
75021;SDS011;63583;49.976;20.182;2024-02-16T02:10:47;17.67;;;9.30;;
75021;SDS011;63583;49.976;20.182;2024-02-16T02:13:13;17.52;;;8.55;;
75021;SDS011;63583;49.976;20.182;2024-02-16T02:15:40;14.90;;;8.57;;
75021;SDS011;63583;49.976;20.182;2024-02-16T02:18:06;13.75;;;8.23;;
75021;SDS011;63583;49.976;20.182;2024-02-16T02:20:32;15.57;;;7.63;;
75021;SDS011;63583;49.976;20.182;2024-02-16T02:22:59;14.55;;;8.18;;
75021;SDS011;63583;49.976;20.182;2024-02-16T02:25:25;14.50;;;8.68;;
75021;SDS011;63583;49.976;20.182;2024-02-16T02:27:54;14.15;;;8.13;;
75021;SDS011;63583;49.976;20.182;2024-02-16T02:30:20;15.05;;;8.57;;
75021;SDS011;63583;49.976;20.182;2024-02-16T02:32:46;11.85;;;7.47;;
75021;SDS011;63583;49.976;20.182;2024-02-16T02:35:12;12.38;;;7.70;;
75021;SDS011;63583;49.976;20.182;2024-02-16T02:37:39;14.57;;;7.63;;
75021;SDS011;63583;49.976;20.182;2024-02-16T02:40:07;14.63;;;8.00;;
75021;SDS011;63583;49.976;20.182;2024-02-16T02:42:34;14.65;;;7.75;;
75021;SDS011;63583;49.976;20.182;2024-02-16T02:45:01;16.38;;;8.43;;
75021;SDS011;63583;49.976;20.182;2024-02-16T02:47:27;16.73;;;9.05;;
75021;SDS011;63583;49.976;20.182;2024-02-16T02:49:53;16.17;;;7.72;;
75021;SDS011;63583;49.976;20.182;2024-02-16T02:52:19;12.48;;;7.70;;
75021;SDS011;63583;49.976;20.182;2024-02-16T02:54:46;14.15;;;8.60;;
75021;SDS011;63583;49.976;20.182;2024-02-16T02:57:12;13.05;;;7.30;;
75021;SDS011;63583;49.976;20.182;2024-02-16T02:59:38;15.35;;;7.85;;
75021;SDS011;63583;49.976;20.182;2024-02-16T03:02:04;16.85;;;8.90;;
75021;SDS011;63583;49.976;20.182;2024-02-16T03:04:30;14.27;;;8.02;;
75021;SDS011;63583;49.976;20.182;2024-02-16T03:06:55;14.23;;;7.80;;
75021;SDS011;63583;49.976;20.182;2024-02-16T03:09:21;11.73;;;7.70;;
75021;SDS011;63583;49.976;20.182;2024-02-16T03:11:48;14.38;;;7.88;;
75021;SDS011;63583;49.976;20.182;2024-02-16T03:14:16;14.05;;;8.07;;
75021;SDS011;63583;49.976;20.182;2024-02-16T03:16:44;14.38;;;7.45;;
75021;SDS011;63583;49.976;20.182;2024-02-16T03:19:10;14.25;;;7.78;;
75021;SDS011;63583;49.976;20.182;2024-02-16T03:21:36;13.02;;;6.85;;
75021;SDS011;63583;49.976;20.182;2024-02-16T03:24:02;11.93;;;7.63;;
75021;SDS011;63583;49.976;20.182;2024-02-16T03:26:29;14.32;;;8.43;;
75021;SDS011;63583;49.976;20.182;2024-02-16T03:28:55;13.43;;;7.20;;
75021;SDS011;63583;49.976;20.182;2024-02-16T03:31:22;10.07;;;6.22;;
75021;SDS011;63583;49.976;20.182;2024-02-16T03:33:49;11.82;;;7.00;;
75021;SDS011;63583;49.976;20.182;2024-02-16T03:36:19;13.80;;;6.88;;
75021;SDS011;63583;49.976;20.182;2024-02-16T03:38:46;12.40;;;6.57;;
75021;SDS011;63583;49.976;20.182;2024-02-16T03:41:22;11.10;;;6.60;;
75021;SDS011;63583;49.976;20.182;2024-02-16T03:43:49;11.60;;;7.05;;
75021;SDS011;63583;49.976;20.182;2024-02-16T03:46:15;13.60;;;7.03;;
75021;SDS011;63583;49.976;20.182;2024-02-16T03:48:41;13.63;;;6.85;;
75021;SDS011;63583;49.976;20.182;2024-02-16T03:51:07;13.02;;;7.10;;
75021;SDS011;63583;49.976;20.182;2024-02-16T03:53:33;13.30;;;6.95;;
75021;SDS011;63583;49.976;20.182;2024-02-16T03:55:59;12.73;;;7.20;;
75021;SDS011;63583;49.976;20.182;2024-02-16T03:58:25;14.60;;;7.50;;
75021;SDS011;63583;49.976;20.182;2024-02-16T04:00:51;15.00;;;7.50;;
75021;SDS011;63583;49.976;20.182;2024-02-16T04:03:20;12.88;;;7.15;;
75021;SDS011;63583;49.976;20.182;2024-02-16T04:05:46;13.07;;;7.03;;
75021;SDS011;63583;49.976;20.182;2024-02-16T04:08:12;14.38;;;8.30;;
75021;SDS011;63583;49.976;20.182;2024-02-16T04:10:38;13.32;;;7.15;;
75021;SDS011;63583;49.976;20.182;2024-02-16T04:13:04;12.25;;;7.18;;
75021;SDS011;63583;49.976;20.182;2024-02-16T04:15:30;15.00;;;7.20;;
75021;SDS011;63583;49.976;20.182;2024-02-16T04:17:56;15.07;;;8.20;;
75021;SDS011;63583;49.976;20.182;2024-02-16T04:20:22;14.80;;;7.65;;
75021;SDS011;63583;49.976;20.182;2024-02-16T04:22:48;15.30;;;7.35;;
75021;SDS011;63583;49.976;20.182;2024-02-16T04:25:14;15.27;;;8.43;;
75021;SDS011;63583;49.976;20.182;2024-02-16T04:27:40;13.50;;;7.28;;
75021;SDS011;63583;49.976;20.182;2024-02-16T04:30:05;15.30;;;7.95;;
75021;SDS011;63583;49.976;20.182;2024-02-16T04:32:32;13.63;;;7.85;;
75021;SDS011;63583;49.976;20.182;2024-02-16T04:34:58;14.70;;;8.23;;
75021;SDS011;63583;49.976;20.182;2024-02-16T04:37:27;11.38;;;6.88;;
75021;SDS011;63583;49.976;20.182;2024-02-16T04:39:52;14.25;;;7.88;;
75021;SDS011;63583;49.976;20.182;2024-02-16T04:42:18;12.00;;;6.85;;
75021;SDS011;63583;49.976;20.182;2024-02-16T04:44:44;16.60;;;7.82;;
75021;SDS011;63583;49.976;20.182;2024-02-16T04:47:10;15.73;;;7.97;;
75021;SDS011;63583;49.976;20.182;2024-02-16T04:49:36;13.73;;;8.25;;
75021;SDS011;63583;49.976;20.182;2024-02-16T04:52:02;25.75;;;11.10;;
75021;SDS011;63583;49.976;20.182;2024-02-16T04:54:28;14.70;;;8.05;;
75021;SDS011;63583;49.976;20.182;2024-02-16T04:56:55;9.15;;;5.43;;
75021;SDS011;63583;49.976;20.182;2024-02-16T04:59:20;12.63;;;6.50;;
75021;SDS011;63583;49.976;20.182;2024-02-16T05:01:46;10.77;;;6.57;;
75021;SDS011;63583;49.976;20.182;2024-02-16T05:04:12;11.30;;;6.88;;
75021;SDS011;63583;49.976;20.182;2024-02-16T05:06:43;14.00;;;6.40;;
75021;SDS011;63583;49.976;20.182;2024-02-16T05:09:11;11.73;;;6.55;;
75021;SDS011;63583;49.976;20.182;2024-02-16T05:11:37;11.23;;;6.30;;
75021;SDS011;63583;49.976;20.182;2024-02-16T05:14:03;11.30;;;6.18;;
75021;SDS011;63583;49.976;20.182;2024-02-16T05:16:29;10.68;;;6.05;;
75021;SDS011;63583;49.976;20.182;2024-02-16T05:18:55;11.43;;;5.90;;
75021;SDS011;63583;49.976;20.182;2024-02-16T05:21:24;10.38;;;6.43;;
75021;SDS011;63583;49.976;20.182;2024-02-16T05:23:50;9.73;;;5.65;;
75021;SDS011;63583;49.976;20.182;2024-02-16T05:26:16;11.38;;;5.95;;
75021;SDS011;63583;49.976;20.182;2024-02-16T05:28:41;12.20;;;6.28;;
75021;SDS011;63583;49.976;20.182;2024-02-16T05:31:15;11.77;;;6.03;;
75021;SDS011;63583;49.976;20.182;2024-02-16T05:33:44;9.75;;;5.53;;
75021;SDS011;63583;49.976;20.182;2024-02-16T05:36:15;9.63;;;5.72;;
75021;SDS011;63583;49.976;20.182;2024-02-16T05:38:46;10.90;;;6.28;;
75021;SDS011;63583;49.976;20.182;2024-02-16T05:41:12;11.38;;;5.65;;
75021;SDS011;63583;49.976;20.182;2024-02-16T05:43:38;9.68;;;5.53;;
75021;SDS011;63583;49.976;20.182;2024-02-16T05:46:04;11.27;;;5.80;;
75021;SDS011;63583;49.976;20.182;2024-02-16T05:48:33;10.43;;;5.80;;
75021;SDS011;63583;49.976;20.182;2024-02-16T05:51:03;10.10;;;6.18;;
75021;SDS011;63583;49.976;20.182;2024-02-16T05:53:30;11.63;;;6.20;;
75021;SDS011;63583;49.976;20.182;2024-02-16T05:55:57;9.60;;;6.00;;
75021;SDS011;63583;49.976;20.182;2024-02-16T05:58:23;13.00;;;6.10;;
75021;SDS011;63583;49.976;20.182;2024-02-16T06:00:49;10.57;;;5.65;;
75021;SDS011;63583;49.976;20.182;2024-02-16T06:03:15;10.32;;;5.82;;
75021;SDS011;63583;49.976;20.182;2024-02-16T06:05:41;11.68;;;6.28;;
75021;SDS011;63583;49.976;20.182;2024-02-16T06:08:10;10.95;;;5.35;;
75021;SDS011;63583;49.976;20.182;2024-02-16T06:10:36;10.40;;;5.82;;
75021;SDS011;63583;49.976;20.182;2024-02-16T06:13:02;10.82;;;5.55;;
75021;SDS011;63583;49.976;20.182;2024-02-16T06:15:27;10.52;;;5.90;;
75021;SDS011;63583;49.976;20.182;2024-02-16T06:17:53;10.52;;;5.88;;
75021;SDS011;63583;49.976;20.182;2024-02-16T06:20:19;8.55;;;5.18;;
75021;SDS011;63583;49.976;20.182;2024-02-16T06:22:45;11.73;;;5.93;;
75021;SDS011;63583;49.976;20.182;2024-02-16T06:25:11;9.75;;;5.43;;
75021;SDS011;63583;49.976;20.182;2024-02-16T06:27:37;9.15;;;5.38;;
75021;SDS011;63583;49.976;20.182;2024-02-16T06:30:03;11.27;;;5.75;;
75021;SDS011;63583;49.976;20.182;2024-02-16T06:32:38;10.75;;;5.07;;
75021;SDS011;63583;49.976;20.182;2024-02-16T06:35:06;13.38;;;5.82;;
75021;SDS011;63583;49.976;20.182;2024-02-16T06:37:33;9.40;;;5.38;;
75021;SDS011;63583;49.976;20.182;2024-02-16T06:39:59;9.55;;;5.38;;
75021;SDS011;63583;49.976;20.182;2024-02-16T06:42:25;7.60;;;4.95;;
75021;SDS011;63583;49.976;20.182;2024-02-16T06:44:51;7.00;;;4.97;;
75021;SDS011;63583;49.976;20.182;2024-02-16T06:47:17;7.22;;;4.30;;
75021;SDS011;63583;49.976;20.182;2024-02-16T06:49:44;22.27;;;13.85;;
75021;SDS011;63583;49.976;20.182;2024-02-16T06:52:11;23.23;;;10.30;;
75021;SDS011;63583;49.976;20.182;2024-02-16T06:54:37;11.95;;;7.38;;
75021;SDS011;63583;49.976;20.182;2024-02-16T06:57:03;10.18;;;5.30;;
75021;SDS011;63583;49.976;20.182;2024-02-16T06:59:29;10.23;;;4.90;;
75021;SDS011;63583;49.976;20.182;2024-02-16T07:01:55;7.47;;;4.10;;
75021;SDS011;63583;49.976;20.182;2024-02-16T07:04:21;7.07;;;4.60;;
75021;SDS011;63583;49.976;20.182;2024-02-16T07:06:47;9.20;;;4.90;;
75021;SDS011;63583;49.976;20.182;2024-02-16T07:09:12;8.20;;;4.65;;
75021;SDS011;63583;49.976;20.182;2024-02-16T07:11:41;7.03;;;4.35;;
75021;SDS011;63583;49.976;20.182;2024-02-16T07:14:07;8.68;;;4.53;;
75021;SDS011;63583;49.976;20.182;2024-02-16T07:16:34;9.20;;;5.18;;
75021;SDS011;63583;49.976;20.182;2024-02-16T07:18:59;9.38;;;5.57;;
75021;SDS011;63583;49.976;20.182;2024-02-16T07:21:26;13.30;;;6.88;;
75021;SDS011;63583;49.976;20.182;2024-02-16T07:23:54;11.15;;;7.22;;
75021;SDS011;63583;49.976;20.182;2024-02-16T07:26:20;37.38;;;23.23;;
75021;SDS011;63583;49.976;20.182;2024-02-16T07:28:46;39.97;;;23.52;;
75021;SDS011;63583;49.976;20.182;2024-02-16T07:31:11;41.90;;;23.45;;
75021;SDS011;63583;49.976;20.182;2024-02-16T07:33:39;41.95;;;23.30;;
75021;SDS011;63583;49.976;20.182;2024-02-16T07:36:06;40.28;;;23.42;;
75021;SDS011;63583;49.976;20.182;2024-02-16T07:38:32;32.92;;;18.35;;
75021;SDS011;63583;49.976;20.182;2024-02-16T07:40:59;13.88;;;6.45;;
75021;SDS011;63583;49.976;20.182;2024-02-16T07:43:26;9.40;;;5.80;;
75021;SDS011;63583;49.976;20.182;2024-02-16T07:45:52;10.30;;;6.20;;
75021;SDS011;63583;49.976;20.182;2024-02-16T07:48:22;9.00;;;5.43;;
75021;SDS011;63583;49.976;20.182;2024-02-16T07:50:50;9.30;;;4.93;;
75021;SDS011;63583;49.976;20.182;2024-02-16T07:53:16;11.00;;;5.40;;
75021;SDS011;63583;49.976;20.182;2024-02-16T07:55:42;11.75;;;4.70;;
75021;SDS011;63583;49.976;20.182;2024-02-16T07:58:09;8.43;;;4.28;;
75021;SDS011;63583;49.976;20.182;2024-02-16T08:00:35;7.57;;;4.50;;
75021;SDS011;63583;49.976;20.182;2024-02-16T08:03:00;7.72;;;4.25;;
75021;SDS011;63583;49.976;20.182;2024-02-16T08:05:28;6.90;;;3.95;;
75021;SDS011;63583;49.976;20.182;2024-02-16T08:07:55;8.25;;;4.78;;
75021;SDS011;63583;49.976;20.182;2024-02-16T08:10:21;8.73;;;4.22;;
75021;SDS011;63583;49.976;20.182;2024-02-16T08:12:50;5.63;;;3.45;;
75021;SDS011;63583;49.976;20.182;2024-02-16T08:15:16;5.93;;;3.47;;
75021;SDS011;63583;49.976;20.182;2024-02-16T08:17:48;7.82;;;3.70;;
75021;SDS011;63583;49.976;20.182;2024-02-16T08:20:17;6.32;;;3.88;;
75021;SDS011;63583;49.976;20.182;2024-02-16T08:22:43;7.88;;;4.32;;
75021;SDS011;63583;49.976;20.182;2024-02-16T08:25:09;7.05;;;3.55;;
75021;SDS011;63583;49.976;20.182;2024-02-16T08:27:36;9.10;;;4.65;;
75021;SDS011;63583;49.976;20.182;2024-02-16T08:30:04;6.88;;;3.65;;
75021;SDS011;63583;49.976;20.182;2024-02-16T08:32:31;6.20;;;4.05;;
75021;SDS011;63583;49.976;20.182;2024-02-16T08:34:57;7.15;;;4.00;;
75021;SDS011;63583;49.976;20.182;2024-02-16T08:37:25;6.82;;;3.30;;
75021;SDS011;63583;49.976;20.182;2024-02-16T08:39:52;7.03;;;3.85;;
75021;SDS011;63583;49.976;20.182;2024-02-16T08:42:18;6.43;;;4.20;;
75021;SDS011;63583;49.976;20.182;2024-02-16T08:44:44;6.35;;;4.18;;
75021;SDS011;63583;49.976;20.182;2024-02-16T08:47:10;7.80;;;3.55;;
75021;SDS011;63583;49.976;20.182;2024-02-16T08:49:36;8.10;;;4.43;;
75021;SDS011;63583;49.976;20.182;2024-02-16T08:52:03;6.68;;;3.78;;
75021;SDS011;63583;49.976;20.182;2024-02-16T08:54:32;9.45;;;4.68;;
75021;SDS011;63583;49.976;20.182;2024-02-16T08:56:57;16.67;;;9.30;;
75021;SDS011;63583;49.976;20.182;2024-02-16T08:59:23;30.83;;;17.55;;
75021;SDS011;63583;49.976;20.182;2024-02-16T09:01:52;14.05;;;8.82;;
75021;SDS011;63583;49.976;20.182;2024-02-16T09:04:18;47.88;;;28.65;;
75021;SDS011;63583;49.976;20.182;2024-02-16T09:06:43;50.17;;;28.50;;
75021;SDS011;63583;49.976;20.182;2024-02-16T09:09:09;45.90;;;28.55;;
75021;SDS011;63583;49.976;20.182;2024-02-16T09:11:35;45.85;;;28.33;;
75021;SDS011;63583;49.976;20.182;2024-02-16T09:14:01;45.55;;;28.75;;
75021;SDS011;63583;49.976;20.182;2024-02-16T09:16:27;44.78;;;28.05;;
75021;SDS011;63583;49.976;20.182;2024-02-16T09:18:53;43.40;;;27.33;;
75021;SDS011;63583;49.976;20.182;2024-02-16T09:21:19;41.65;;;27.08;;
75021;SDS011;63583;49.976;20.182;2024-02-16T09:23:45;43.33;;;27.33;;
75021;SDS011;63583;49.976;20.182;2024-02-16T09:26:11;42.58;;;25.70;;
75021;SDS011;63583;49.976;20.182;2024-02-16T09:28:40;39.90;;;24.48;;
75021;SDS011;63583;49.976;20.182;2024-02-16T09:31:09;39.88;;;23.50;;
75021;SDS011;63583;49.976;20.182;2024-02-16T09:33:35;36.53;;;22.92;;
75021;SDS011;63583;49.976;20.182;2024-02-16T09:36:01;35.50;;;23.02;;
75021;SDS011;63583;49.976;20.182;2024-02-16T09:38:26;32.92;;;21.27;;
75021;SDS011;63583;49.976;20.182;2024-02-16T09:40:52;33.58;;;20.35;;
75021;SDS011;63583;49.976;20.182;2024-02-16T09:43:25;36.70;;;22.17;;
75021;SDS011;63583;49.976;20.182;2024-02-16T09:45:52;29.27;;;19.70;;
75021;SDS011;63583;49.976;20.182;2024-02-16T09:48:19;35.33;;;21.42;;
75021;SDS011;63583;49.976;20.182;2024-02-16T09:50:46;33.33;;;19.15;;
75021;SDS011;63583;49.976;20.182;2024-02-16T09:53:15;34.65;;;21.52;;
75021;SDS011;63583;49.976;20.182;2024-02-16T09:55:42;32.92;;;20.02;;
75021;SDS011;63583;49.976;20.182;2024-02-16T09:58:08;32.53;;;18.95;;
75021;SDS011;63583;49.976;20.182;2024-02-16T10:00:34;29.25;;;16.75;;
75021;SDS011;63583;49.976;20.182;2024-02-16T10:03:00;30.33;;;17.90;;
75021;SDS011;63583;49.976;20.182;2024-02-16T10:05:26;26.05;;;15.55;;
75021;SDS011;63583;49.976;20.182;2024-02-16T10:07:52;25.50;;;15.65;;
75021;SDS011;63583;49.976;20.182;2024-02-16T10:10:21;23.10;;;14.45;;
75021;SDS011;63583;49.976;20.182;2024-02-16T10:12:48;17.10;;;10.35;;
75021;SDS011;63583;49.976;20.182;2024-02-16T10:15:19;18.05;;;10.75;;
75021;SDS011;63583;49.976;20.182;2024-02-16T10:20:24;12.50;;;8.20;;
75021;SDS011;63583;49.976;20.182;2024-02-16T10:23:01;15.07;;;7.20;;
75021;SDS011;63583;49.976;20.182;2024-02-16T10:25:30;12.00;;;5.93;;
75021;SDS011;63583;49.976;20.182;2024-02-16T10:27:57;10.38;;;6.05;;
75021;SDS011;63583;49.976;20.182;2024-02-16T10:30:26;11.45;;;6.63;;
75021;SDS011;63583;49.976;20.182;2024-02-16T10:32:55;8.77;;;5.45;;
75021;SDS011;63583;49.976;20.182;2024-02-16T10:35:20;7.65;;;4.90;;
75021;SDS011;63583;49.976;20.182;2024-02-16T10:37:47;10.05;;;6.25;;
75021;SDS011;63583;49.976;20.182;2024-02-16T10:40:14;7.45;;;4.78;;
75021;SDS011;63583;49.976;20.182;2024-02-16T10:42:45;8.98;;;5.38;;
75021;SDS011;63583;49.976;20.182;2024-02-16T10:45:11;10.27;;;5.80;;
75021;SDS011;63583;49.976;20.182;2024-02-16T10:47:41;8.30;;;5.72;;
75021;SDS011;63583;49.976;20.182;2024-02-16T10:50:07;8.98;;;5.00;;
75021;SDS011;63583;49.976;20.182;2024-02-16T10:52:35;7.00;;;3.97;;
75021;SDS011;63583;49.976;20.182;2024-02-16T10:55:04;5.88;;;3.25;;
75021;SDS011;63583;49.976;20.182;2024-02-16T10:57:31;5.63;;;3.47;;
75021;SDS011;63583;49.976;20.182;2024-02-16T10:59:58;7.75;;;4.95;;
75021;SDS011;63583;49.976;20.182;2024-02-16T11:02:25;6.60;;;3.90;;
75021;SDS011;63583;49.976;20.182;2024-02-16T11:04:52;7.47;;;4.63;;
75021;SDS011;63583;49.976;20.182;2024-02-16T11:07:19;6.45;;;3.65;;
75021;SDS011;63583;49.976;20.182;2024-02-16T11:09:45;7.75;;;4.57;;
75021;SDS011;63583;49.976;20.182;2024-02-16T11:12:12;7.95;;;5.13;;
75021;SDS011;63583;49.976;20.182;2024-02-16T11:14:46;7.75;;;4.60;;
75021;SDS011;63583;49.976;20.182;2024-02-16T11:17:19;7.15;;;4.55;;
75021;SDS011;63583;49.976;20.182;2024-02-16T11:19:46;6.82;;;3.80;;
75021;SDS011;63583;49.976;20.182;2024-02-16T11:22:17;8.82;;;4.80;;
75021;SDS011;63583;49.976;20.182;2024-02-16T11:24:44;7.22;;;3.70;;
75021;SDS011;63583;49.976;20.182;2024-02-16T11:27:11;5.95;;;3.65;;
75021;SDS011;63583;49.976;20.182;2024-02-16T11:29:38;5.88;;;3.80;;
75021;SDS011;63583;49.976;20.182;2024-02-16T11:32:05;7.97;;;4.55;;
75021;SDS011;63583;49.976;20.182;2024-02-16T11:34:32;7.97;;;4.30;;
75021;SDS011;63583;49.976;20.182;2024-02-16T11:36:59;7.35;;;4.05;;
75021;SDS011;63583;49.976;20.182;2024-02-16T11:39:26;10.75;;;5.90;;
75021;SDS011;63583;49.976;20.182;2024-02-16T11:41:59;9.48;;;5.97;;
75021;SDS011;63583;49.976;20.182;2024-02-16T11:44:50;10.80;;;6.88;;
75021;SDS011;63583;49.976;20.182;2024-02-16T11:47:41;8.50;;;6.00;;
75021;SDS011;63583;49.976;20.182;2024-02-16T11:50:07;9.80;;;6.20;;
75021;SDS011;63583;49.976;20.182;2024-02-16T11:52:40;9.90;;;6.30;;
75021;SDS011;63583;49.976;20.182;2024-02-16T11:55:12;12.18;;;6.50;;
75021;SDS011;63583;49.976;20.182;2024-02-16T11:57:58;12.05;;;6.30;;
75021;SDS011;63583;49.976;20.182;2024-02-16T12:00:24;12.52;;;6.43;;
75021;SDS011;63583;49.976;20.182;2024-02-16T12:02:58;10.68;;;5.80;;
75021;SDS011;63583;49.976;20.182;2024-02-16T12:05:25;9.82;;;5.57;;
75021;SDS011;63583;49.976;20.182;2024-02-16T12:07:51;12.85;;;6.22;;
75021;SDS011;63583;49.976;20.182;2024-02-16T12:10:16;6.97;;;5.32;;
75021;SDS011;63583;49.976;20.182;2024-02-16T12:12:43;8.70;;;5.13;;
75021;SDS011;63583;49.976;20.182;2024-02-16T12:15:09;9.85;;;5.80;;
75021;SDS011;63583;49.976;20.182;2024-02-16T12:17:36;8.52;;;5.32;;
75021;SDS011;63583;49.976;20.182;2024-02-16T12:20:01;10.25;;;5.60;;
75021;SDS011;63583;49.976;20.182;2024-02-16T12:22:28;8.65;;;5.40;;
75021;SDS011;63583;49.976;20.182;2024-02-16T12:24:53;7.72;;;5.00;;
75021;SDS011;63583;49.976;20.182;2024-02-16T12:27:19;8.73;;;5.07;;
75021;SDS011;63583;49.976;20.182;2024-02-16T12:29:45;8.73;;;5.20;;
75021;SDS011;63583;49.976;20.182;2024-02-16T12:32:13;9.35;;;5.40;;
75021;SDS011;63583;49.976;20.182;2024-02-16T12:34:43;7.88;;;5.28;;
75021;SDS011;63583;49.976;20.182;2024-02-16T12:37:09;9.65;;;5.05;;
75021;SDS011;63583;49.976;20.182;2024-02-16T12:39:36;7.13;;;4.82;;
75021;SDS011;63583;49.976;20.182;2024-02-16T12:42:03;8.23;;;5.22;;
75021;SDS011;63583;49.976;20.182;2024-02-16T12:44:29;7.20;;;4.35;;
75021;SDS011;63583;49.976;20.182;2024-02-16T12:46:56;9.82;;;5.72;;
75021;SDS011;63583;49.976;20.182;2024-02-16T12:49:22;9.30;;;5.38;;
75021;SDS011;63583;49.976;20.182;2024-02-16T12:51:51;9.50;;;5.10;;
75021;SDS011;63583;49.976;20.182;2024-02-16T12:54:17;8.68;;;5.20;;
75021;SDS011;63583;49.976;20.182;2024-02-16T12:56:47;9.57;;;5.15;;
75021;SDS011;63583;49.976;20.182;2024-02-16T12:59:15;8.07;;;4.68;;
75021;SDS011;63583;49.976;20.182;2024-02-16T13:01:41;9.25;;;5.38;;
75021;SDS011;63583;49.976;20.182;2024-02-16T13:04:08;9.10;;;5.95;;
75021;SDS011;63583;49.976;20.182;2024-02-16T13:06:34;8.43;;;4.53;;
75021;SDS011;63583;49.976;20.182;2024-02-16T13:09:00;10.65;;;5.60;;
75021;SDS011;63583;49.976;20.182;2024-02-16T13:11:26;9.13;;;5.35;;
75021;SDS011;63583;49.976;20.182;2024-02-16T13:13:52;8.55;;;5.30;;
75021;SDS011;63583;49.976;20.182;2024-02-16T13:16:18;8.52;;;5.13;;
75021;SDS011;63583;49.976;20.182;2024-02-16T13:18:43;8.68;;;4.82;;
75021;SDS011;63583;49.976;20.182;2024-02-16T13:21:09;9.57;;;4.95;;
75021;SDS011;63583;49.976;20.182;2024-02-16T13:23:35;8.55;;;5.60;;
75021;SDS011;63583;49.976;20.182;2024-02-16T13:26:01;13.15;;;5.50;;
75021;SDS011;63583;49.976;20.182;2024-02-16T13:28:27;8.68;;;5.53;;
75021;SDS011;63583;49.976;20.182;2024-02-16T13:30:53;11.70;;;5.55;;
75021;SDS011;63583;49.976;20.182;2024-02-16T13:33:18;8.90;;;5.38;;
75021;SDS011;63583;49.976;20.182;2024-02-16T13:35:44;8.95;;;5.20;;
75021;SDS011;63583;49.976;20.182;2024-02-16T13:38:10;7.65;;;4.68;;
75021;SDS011;63583;49.976;20.182;2024-02-16T13:40:36;8.40;;;4.88;;
75021;SDS011;63583;49.976;20.182;2024-02-16T13:43:01;7.20;;;4.57;;
75021;SDS011;63583;49.976;20.182;2024-02-16T13:45:29;7.75;;;5.28;;
75021;SDS011;63583;49.976;20.182;2024-02-16T13:48:13;9.02;;;5.30;;
75021;SDS011;63583;49.976;20.182;2024-02-16T13:50:39;7.00;;;4.75;;
75021;SDS011;63583;49.976;20.182;2024-02-16T13:53:05;8.88;;;5.00;;
75021;SDS011;63583;49.976;20.182;2024-02-16T13:55:31;8.65;;;4.60;;
75021;SDS011;63583;49.976;20.182;2024-02-16T13:57:56;7.28;;;4.78;;
75021;SDS011;63583;49.976;20.182;2024-02-16T14:00:22;8.35;;;5.20;;
75021;SDS011;63583;49.976;20.182;2024-02-16T14:02:48;6.70;;;4.60;;
75021;SDS011;63583;49.976;20.182;2024-02-16T14:05:14;7.72;;;4.75;;
75021;SDS011;63583;49.976;20.182;2024-02-16T14:07:39;7.05;;;4.25;;
75021;SDS011;63583;49.976;20.182;2024-02-16T14:10:06;6.88;;;4.15;;
75021;SDS011;63583;49.976;20.182;2024-02-16T14:12:32;11.15;;;4.60;;
75021;SDS011;63583;49.976;20.182;2024-02-16T14:15:01;9.10;;;5.35;;
75021;SDS011;63583;49.976;20.182;2024-02-16T14:17:29;8.80;;;5.15;;
75021;SDS011;63583;49.976;20.182;2024-02-16T14:19:55;7.68;;;5.05;;
75021;SDS011;63583;49.976;20.182;2024-02-16T14:22:20;9.02;;;5.40;;
75021;SDS011;63583;49.976;20.182;2024-02-16T14:24:46;9.68;;;5.00;;